Kiyomaru — JK5234 — position and weather

sailwx.info

Track history (hours):
 
Tides and Currents Weather Stations Pressure Air Temp Water Temp Dewpoint Dewpoint Depression Visibility Wind Speed Wind Dir Waves Ship Positions

Kiyomaru

Last reported at 2017-Nov-20 00:00 UTC. Time now 2017-Nov-20 00:27 UTC.
Position N 34°43' E 135°17'.

Length 121 m; draft 4 m.

Type: Cargo ship. MMSI: 431400386.

Date/timePositionNaut miles runAvg speedWind from/ knotsBaromVisibWave heightAir tempDewpointWater temp
2017-Nov-20 00:00N 34°43' E 135°17'0 0.0
2017-Nov-19 23:30N 34°43' E 135°17'0 0.0
2017-Nov-19 23:00N 34°43' E 135°17'0 0.0
2017-Nov-19 22:30N 34°43' E 135°17'0 0.5
2017-Nov-19 22:00N 34°43' E 135°17'4 7.6
2017-Nov-19 21:30N 34°39' E 135°18'4 8.2
2017-Nov-19 21:00N 34°37' E 135°14'4 8.9
2017-Nov-19 20:30N 34°35' E 135°08'5 9.4
2017-Nov-19 20:00N 34°36' E 135°03'4 8.9
2017-Nov-19 19:30N 34°36' E 134°57'610.6
2017-Nov-19 18:57N 34°34' E 134°51'  
Track history (hours):
 
Tides and Currents Weather Stations Pressure Air Temp Water Temp Dewpoint Dewpoint Depression Visibility Wind Speed Wind Dir Waves Ship Positions

Kiyomaru

Last reported at 2017-Nov-20 00:00 UTC. Time now 2017-Nov-20 00:27 UTC.
Position N 34°43' E 135°17'.

Length 121 m; draft 4 m.

Type: Cargo ship. MMSI: 431400386.

Date/timePositionNaut miles runAvg speedWind from/ knotsBaromVisibWave heightAir tempDewpointWater temp
2017-Nov-20 00:00N 34°43' E 135°17'0 0.0
2017-Nov-19 23:30N 34°43' E 135°17'0 0.0
2017-Nov-19 23:00N 34°43' E 135°17'0 0.0
2017-Nov-19 22:30N 34°43' E 135°17'0 0.5
2017-Nov-19 22:00N 34°43' E 135°17'4 7.6
2017-Nov-19 21:30N 34°39' E 135°18'4 8.2
2017-Nov-19 21:00N 34°37' E 135°14'4 8.9
2017-Nov-19 20:30N 34°35' E 135°08'5 9.4
2017-Nov-19 20:00N 34°36' E 135°03'4 8.9
2017-Nov-19 19:30N 34°36' E 134°57'610.6
2017-Nov-19 18:57N 34°34' E 134°51'  

Dump ship's entire track history